createdAt,value
2023-01-10T00:00:00.439Z,22.2
2023-01-10T00:05:00.590Z,16.8
2023-01-10T00:10:00.476Z,17.0
2023-01-10T00:15:00.486Z,19.0
2023-01-10T00:20:00.436Z,19.3
2023-01-10T00:25:00.478Z,20.9
2023-01-10T00:30:00.476Z,16.3
2023-01-10T00:35:00.496Z,15.1
2023-01-10T00:40:00.440Z,15.7
2023-01-10T00:45:00.491Z,14.6
2023-01-10T00:50:00.439Z,15.8
2023-01-10T00:55:00.474Z,9.2
2023-01-10T01:00:00.503Z,12.6
2023-01-10T01:05:00.485Z,12.3
2023-01-10T01:10:00.439Z,17.7
2023-01-10T01:15:00.448Z,12.0
2023-01-10T01:20:00.480Z,12.3
2023-01-10T01:25:00.476Z,15.6
2023-01-10T01:30:00.475Z,19.5
2023-01-10T01:35:00.468Z,14.7
2023-01-10T01:40:00.497Z,15.1
2023-01-10T01:45:00.647Z,15.2
2023-01-10T01:50:00.438Z,10.8
2023-01-10T01:55:00.480Z,14.5
2023-01-10T02:00:00.621Z,15.5
2023-01-10T02:05:00.438Z,12.8
2023-01-10T02:10:00.479Z,14.2
2023-01-10T02:15:00.509Z,15.9
2023-01-10T02:20:00.458Z,12.3
2023-01-10T02:25:00.497Z,13.2
2023-01-10T02:30:00.480Z,17.3
2023-01-10T02:35:00.493Z,11.3
2023-01-10T02:40:00.432Z,18.0
2023-01-10T02:45:00.485Z,12.9
2023-01-10T02:50:00.461Z,12.2
2023-01-10T02:55:00.472Z,11.6
2023-01-10T03:00:00.488Z,10.0
2023-01-10T03:05:00.688Z,17.2
2023-01-10T03:10:00.455Z,15.0
2023-01-10T03:15:00.653Z,14.2
2023-01-10T03:20:01.033Z,11.1
2023-01-10T03:25:00.566Z,10.0
2023-01-10T03:30:00.474Z,12.0
2023-01-10T03:35:00.475Z,11.5
2023-01-10T03:40:00.500Z,15.3
2023-01-10T03:45:00.455Z,10.8
2023-01-10T03:50:00.501Z,10.3
2023-01-10T03:55:00.483Z,14.5
2023-01-10T04:00:00.512Z,11.3
2023-01-10T04:05:00.440Z,9.3
2023-01-10T04:10:00.498Z,10.5
2023-01-10T04:15:00.535Z,10.0
2023-01-10T04:20:00.466Z,11.1
2023-01-10T04:25:00.493Z,13.2
2023-01-10T04:30:00.493Z,13.3
2023-01-10T04:35:00.505Z,11.3
2023-01-10T04:40:00.484Z,13.5
2023-01-10T04:45:00.452Z,9.7
2023-01-10T04:50:00.489Z,7.9
2023-01-10T04:55:00.477Z,11.5
2023-01-10T05:00:00.443Z,10.6
2023-01-10T05:05:00.465Z,14.7
2023-01-10T05:10:00.431Z,10.5
2023-01-10T05:15:00.481Z,12.4
2023-01-10T05:20:00.504Z,11.6
2023-01-10T05:25:00.468Z,13.6
2023-01-10T05:30:00.506Z,13.1
2023-01-10T05:35:00.435Z,9.1
2023-01-10T05:40:00.500Z,12.2
2023-01-10T05:45:00.506Z,11.0
2023-01-10T05:50:00.431Z,11.0
2023-01-10T05:55:00.493Z,7.5
2023-01-10T06:00:00.504Z,6.9
2023-01-10T06:05:00.486Z,12.0
2023-01-10T06:10:00.462Z,8.0
2023-01-10T06:15:00.509Z,14.0
2023-01-10T06:20:00.447Z,14.5
2023-01-10T06:25:02.356Z,12.9
2023-01-10T06:30:00.488Z,13.1
2023-01-10T06:35:00.446Z,15.4
2023-01-10T06:40:00.486Z,7.6
2023-01-10T06:45:00.487Z,11.3
2023-01-10T06:50:00.465Z,13.0
2023-01-10T06:55:00.431Z,11.2
2023-01-10T07:00:00.536Z,12.1
2023-01-10T07:05:00.499Z,10.6
2023-01-10T07:10:00.480Z,8.8
2023-01-10T07:15:00.499Z,11.5
2023-01-10T07:20:00.504Z,12.2
2023-01-10T07:25:00.491Z,10.9
2023-01-10T07:30:00.444Z,9.5
2023-01-10T07:35:00.457Z,12.6
2023-01-10T07:40:00.462Z,12.5
2023-01-10T07:45:00.495Z,16.5
2023-01-10T07:50:00.472Z,15.2
2023-01-10T07:55:00.500Z,13.0
2023-01-10T08:00:00.528Z,14.9
2023-01-10T08:05:00.494Z,16.6
2023-01-10T08:10:00.488Z,14.7
2023-01-10T08:15:00.473Z,11.0
2023-01-10T08:20:00.494Z,20.0
2023-01-10T08:25:00.513Z,11.8
2023-01-10T08:30:00.491Z,11.8
2023-01-10T08:35:00.471Z,12.8
2023-01-10T08:40:00.496Z,10.5
2023-01-10T08:45:00.662Z,18.7
2023-01-10T08:50:00.467Z,19.7
2023-01-10T08:55:00.538Z,10.7
2023-01-10T09:00:00.504Z,12.3
2023-01-10T09:05:00.491Z,12.9
2023-01-10T09:10:00.436Z,10.4
2023-01-10T09:15:00.494Z,12.6
2023-01-10T09:20:00.440Z,13.3
2023-01-10T09:25:00.462Z,18.6
2023-01-10T09:30:00.467Z,15.1
2023-01-10T09:35:00.544Z,12.0
2023-01-10T09:40:00.443Z,18.9
2023-01-10T09:45:00.500Z,14.7
2023-01-10T09:50:00.475Z,19.6
2023-01-10T09:55:00.473Z,15.7
2023-01-10T10:00:00.432Z,14.9
2023-01-10T10:05:00.492Z,20.0
2023-01-10T10:10:00.515Z,17.3
2023-01-10T10:15:00.489Z,16.3
2023-01-10T10:20:00.528Z,12.9
2023-01-10T10:25:00.471Z,17.7
2023-01-10T10:30:00.497Z,15.3
2023-01-10T10:35:00.451Z,18.0
2023-01-10T10:40:00.489Z,18.2
2023-01-10T10:45:00.483Z,18.6
2023-01-10T10:50:00.443Z,19.0
2023-01-10T10:55:00.497Z,18.8
2023-01-10T11:00:00.506Z,18.5
2023-01-10T11:05:00.523Z,20.0
2023-01-10T11:10:00.507Z,17.7
2023-01-10T11:15:00.488Z,19.6
2023-01-10T11:20:00.498Z,19.5
2023-01-10T11:25:00.484Z,18.0
2023-01-10T11:30:00.433Z,14.3
2023-01-10T11:35:00.517Z,24.0
2023-01-10T11:40:00.482Z,17.0
2023-01-10T11:45:00.427Z,18.6
2023-01-10T11:50:00.483Z,18.8
2023-01-10T11:55:00.484Z,16.9
2023-01-10T12:00:00.490Z,14.8
2023-01-10T12:05:00.529Z,15.9
2023-01-10T12:10:00.482Z,19.0
2023-01-10T12:15:00.454Z,15.8
2023-01-10T12:20:00.493Z,21.1
2023-01-10T12:25:00.467Z,16.3
2023-01-10T12:30:00.469Z,23.1
2023-01-10T12:35:00.449Z,23.1
2023-01-10T12:40:00.709Z,18.9
2023-01-10T12:45:00.435Z,23.4
2023-01-10T12:50:00.480Z,15.5
2023-01-10T12:55:00.484Z,17.5
2023-01-10T13:00:00.494Z,17.2
2023-01-10T13:05:00.481Z,17.8
2023-01-10T13:10:00.468Z,18.6
2023-01-10T13:15:00.500Z,16.1
2023-01-10T13:20:00.426Z,16.9
2023-01-10T13:25:00.480Z,18.0
2023-01-10T13:30:00.792Z,18.9
2023-01-10T13:35:00.526Z,18.3
2023-01-10T13:40:00.459Z,20.3
2023-01-10T13:45:00.525Z,17.8
2023-01-10T13:50:00.460Z,22.3
2023-01-10T13:55:00.493Z,13.2
2023-01-10T14:00:00.457Z,13.6
2023-01-10T14:05:00.508Z,19.3
2023-01-10T14:10:00.438Z,14.6
2023-01-10T14:15:00.493Z,15.8
2023-01-10T14:20:00.434Z,17.2
2023-01-10T14:25:00.494Z,14.2
2023-01-10T14:30:00.488Z,14.0
2023-01-10T14:35:00.475Z,16.2
2023-01-10T14:40:00.450Z,15.4
2023-01-10T14:45:00.491Z,16.1
2023-01-10T14:50:00.485Z,15.1
2023-01-10T14:55:00.485Z,16.1
2023-01-10T15:00:00.434Z,14.4
2023-01-10T15:05:00.669Z,18.6
2023-01-10T15:10:00.489Z,11.8
2023-01-10T15:15:00.504Z,14.2
2023-01-10T15:20:00.475Z,10.8
2023-01-10T15:25:00.496Z,11.7
2023-01-10T15:30:00.502Z,13.5
2023-01-10T15:35:00.437Z,16.5
2023-01-10T15:40:00.620Z,15.0
2023-01-10T15:45:00.434Z,17.8
2023-01-10T15:50:00.553Z,16.6
2023-01-10T15:55:00.485Z,15.7
2023-01-10T16:00:00.624Z,14.3
2023-01-10T16:05:00.442Z,23.7
2023-01-10T16:10:00.498Z,15.3
2023-01-10T16:15:00.475Z,12.8
2023-01-10T16:20:00.516Z,18.1
2023-01-10T16:25:00.450Z,15.6
2023-01-10T16:30:00.658Z,13.3
2023-01-10T16:35:00.479Z,21.0
2023-01-10T16:40:00.469Z,22.3
2023-01-10T16:45:00.478Z,13.4
2023-01-10T16:50:00.493Z,17.3
2023-01-10T16:55:00.506Z,22.0
2023-01-10T17:00:00.516Z,26.8
2023-01-10T17:05:00.462Z,22.4
2023-01-10T17:10:00.488Z,16.5
2023-01-10T17:15:00.449Z,29.3
2023-01-10T17:20:00.500Z,19.9
2023-01-10T17:25:00.509Z,21.3
2023-01-10T17:30:00.484Z,18.5
2023-01-10T17:35:00.434Z,19.5
2023-01-10T17:40:00.488Z,18.9
2023-01-10T17:45:00.480Z,24.9
2023-01-10T17:50:00.465Z,19.8
2023-01-10T17:55:00.492Z,25.7
2023-01-10T18:00:00.438Z,20.4
2023-01-10T18:05:00.493Z,19.9
2023-01-10T18:10:00.477Z,20.8
2023-01-10T18:15:00.516Z,19.1
2023-01-10T18:20:00.435Z,14.5
2023-01-10T18:25:00.565Z,14.5
2023-01-10T18:30:00.511Z,15.0
2023-01-10T18:35:00.508Z,20.0
2023-01-10T18:40:00.431Z,18.8
2023-01-10T18:45:00.497Z,14.3
2023-01-10T18:50:00.430Z,10.2
2023-01-10T18:55:02.372Z,14.7
2023-01-10T19:00:00.525Z,14.3
2023-01-10T19:05:00.569Z,16.6
2023-01-10T19:10:00.492Z,10.7
2023-01-10T19:15:00.588Z,9.7
2023-01-10T19:20:00.501Z,18.2
2023-01-10T19:25:00.443Z,11.8
2023-01-10T19:30:00.800Z,9.4
2023-01-10T19:35:00.468Z,11.7
2023-01-10T19:40:00.572Z,7.5
2023-01-10T19:45:02.565Z,9.7
2023-01-10T19:50:00.516Z,8.6
2023-01-10T19:55:00.435Z,9.2
2023-01-10T20:00:00.498Z,11.0
2023-01-10T20:05:00.434Z,13.4
2023-01-10T20:10:00.506Z,9.9
2023-01-10T20:15:00.481Z,9.1
2023-01-10T20:20:00.543Z,11.8
2023-01-10T20:25:00.439Z,6.7
2023-01-10T20:30:00.502Z,12.1
2023-01-10T20:35:00.450Z,7.5
2023-01-10T20:40:00.498Z,11.4
2023-01-10T20:45:00.478Z,10.3
2023-01-10T20:50:00.485Z,9.8
2023-01-10T20:55:00.443Z,9.8
2023-01-10T21:05:00.479Z,7.8
2023-01-10T21:10:00.433Z,8.0
2023-01-10T21:15:00.468Z,7.5
2023-01-10T21:20:00.469Z,6.3
2023-01-10T21:25:00.494Z,6.8
2023-01-10T21:30:00.445Z,7.9
2023-01-10T21:35:00.485Z,7.1
2023-01-10T21:40:00.518Z,9.4
2023-01-10T21:45:00.484Z,5.8
2023-01-10T21:50:00.446Z,5.8
2023-01-10T21:55:00.507Z,11.0
2023-01-10T22:00:00.445Z,5.0
2023-01-10T22:05:00.490Z,7.7
2023-01-10T22:10:00.487Z,5.6
2023-01-10T22:15:00.519Z,8.7
2023-01-10T22:20:00.423Z,8.6
2023-01-10T22:25:00.483Z,6.1
2023-01-10T22:30:00.504Z,9.4
2023-01-10T22:35:00.480Z,6.9
2023-01-10T22:40:00.435Z,9.0
2023-01-10T22:45:00.480Z,7.1
2023-01-10T22:50:00.491Z,9.5
2023-01-10T22:55:00.477Z,10.7
2023-01-10T23:00:00.465Z,14.2
2023-01-10T23:05:00.699Z,11.1
2023-01-10T23:10:00.447Z,5.5
2023-01-10T23:15:00.474Z,7.1
2023-01-10T23:20:00.510Z,5.2
2023-01-10T23:25:00.499Z,10.1
2023-01-10T23:30:00.455Z,5.0
2023-01-10T23:35:00.465Z,5.7
2023-01-10T23:40:00.493Z,7.1
2023-01-10T23:45:00.474Z,7.7
2023-01-10T23:50:00.438Z,8.6
2023-01-10T23:55:00.464Z,8.8
